Minneapolis, Minnesota
Current Conditions -  °F | °C
As of 11:53 AM on Wednesday 28 Jan 2015 (Local Time) from KMSP Reporting Station
Haze Haze  
Wind Chill: 17°   Ceiling: 1000
Heat Index: 28°   Visibility: 5mi
Dew Point: 24°   Wind: 15mph
Humidity: 85%   Direction: 140°SE
Pressure: 29.93"   Gusts: 20mph
Location:  44.98°N, 93.26°W
Report Text: KMSP 281753Z 14013G17KT 5SM BR OVC010 M02/M04 A2993 RMK AO2 SLP146 T10221044 11017 21022 58016
Loading
Personal Weather Stations






























Interactive Weather Map New forecast layout! Learn more

10-Day Weather Forecast

Advertisements
Track Severe Weather on mobile